createdAt,value
2017-12-13T00:00:38.712Z,936.11
2017-12-13T00:01:38.704Z,936.17
2017-12-13T00:02:38.746Z,936.11
2017-12-13T00:03:38.692Z,936.14
2017-12-13T00:04:38.680Z,936.07
2017-12-13T00:05:38.671Z,936.13
2017-12-13T00:06:38.664Z,936.17
2017-12-13T00:07:38.657Z,936.14
2017-12-13T00:08:38.649Z,936.20
2017-12-13T00:09:38.640Z,936.16
2017-12-13T00:10:38.637Z,936.18
2017-12-13T00:11:38.625Z,936.17
2017-12-13T00:12:38.621Z,936.16
2017-12-13T00:13:38.614Z,936.18
2017-12-13T00:14:38.655Z,936.18
2017-12-13T00:15:38.597Z,936.15
2017-12-13T00:16:38.590Z,936.18
2017-12-13T00:17:38.577Z,936.18
2017-12-13T00:18:38.570Z,936.19
2017-12-13T00:19:38.561Z,936.20
2017-12-13T00:20:38.654Z,936.20
2017-12-13T00:21:38.550Z,936.24
2017-12-13T00:22:38.543Z,936.21
2017-12-13T00:23:38.529Z,936.20
2017-12-13T00:24:38.522Z,936.19
2017-12-13T00:25:38.514Z,936.23
2017-12-13T00:26:38.561Z,936.26
2017-12-13T00:27:38.498Z,936.26
2017-12-13T00:28:38.491Z,936.29
2017-12-13T00:29:38.483Z,936.25
2017-12-13T00:30:38.475Z,936.30
2017-12-13T00:31:38.473Z,936.29
2017-12-13T00:32:38.468Z,936.29
2017-12-13T00:33:38.452Z,936.22
2017-12-13T00:34:38.445Z,936.21
2017-12-13T00:35:38.436Z,936.18
2017-12-13T00:36:38.430Z,936.23
2017-12-13T00:37:38.471Z,936.26
2017-12-13T00:38:38.462Z,936.22
2017-12-13T00:39:38.410Z,936.23
2017-12-13T00:40:38.403Z,936.24
2017-12-13T00:41:38.390Z,936.22
2017-12-13T00:42:38.381Z,936.19
2017-12-13T00:43:38.375Z,936.19
2017-12-13T00:44:38.471Z,936.20
2017-12-13T00:45:38.359Z,936.22
2017-12-13T00:46:38.355Z,936.17
2017-12-13T00:47:38.344Z,936.16
2017-12-13T00:48:38.335Z,936.18
2017-12-13T00:49:38.326Z,936.19
2017-12-13T00:50:38.320Z,936.15
2017-12-13T00:51:38.311Z,936.17
2017-12-13T00:52:38.305Z,936.17
2017-12-13T00:53:38.296Z,936.16
2017-12-13T00:54:38.289Z,936.17
2017-12-13T00:55:38.281Z,936.12
2017-12-13T00:56:38.274Z,936.21
2017-12-13T00:57:38.264Z,936.18
2017-12-13T00:58:38.257Z,936.15
2017-12-13T00:59:38.255Z,936.19
2017-12-13T01:00:38.242Z,936.20
2017-12-13T01:01:38.233Z,936.19
2017-12-13T01:02:38.271Z,936.23
2017-12-13T01:03:38.220Z,936.20
2017-12-13T01:04:38.216Z,936.21
2017-12-13T01:05:38.208Z,936.27
2017-12-13T01:06:38.196Z,936.19
2017-12-13T01:07:38.189Z,936.19
2017-12-13T01:08:38.185Z,936.24
2017-12-13T01:09:38.157Z,936.23
2017-12-13T01:10:38.151Z,936.20
2017-12-13T01:11:38.143Z,936.19
2017-12-13T01:12:39.335Z,936.21
2017-12-13T01:13:38.126Z,936.20
2017-12-13T01:14:38.220Z,936.22
2017-12-13T01:15:38.115Z,936.15
2017-12-13T01:16:38.105Z,936.17
2017-12-13T01:17:38.100Z,936.16
2017-12-13T01:18:38.093Z,936.12
2017-12-13T01:19:38.082Z,936.13
2017-12-13T01:20:38.077Z,936.10
2017-12-13T01:21:38.064Z,936.12
2017-12-13T01:22:38.057Z,936.11
2017-12-13T01:23:38.053Z,936.11
2017-12-13T01:24:38.042Z,936.15
2017-12-13T01:25:38.038Z,936.14
2017-12-13T01:26:38.028Z,936.10
2017-12-13T01:27:38.019Z,936.08
2017-12-13T01:28:38.017Z,936.04
2017-12-13T01:29:38.004Z,936.06
2017-12-13T01:30:37.995Z,936.06
2017-12-13T01:31:37.988Z,936.07
2017-12-13T01:32:37.982Z,936.08
2017-12-13T01:33:37.972Z,936.08
2017-12-13T01:34:37.964Z,936.05
2017-12-13T01:35:37.960Z,936.06
2017-12-13T01:36:37.949Z,936.03
2017-12-13T01:37:37.941Z,936.02
2017-12-13T01:38:37.938Z,936.03
2017-12-13T01:39:37.930Z,936.00
2017-12-13T01:40:37.926Z,936.04
2017-12-13T01:41:37.914Z,936.02
2017-12-13T01:42:37.904Z,935.98
2017-12-13T01:43:37.898Z,936.00
2017-12-13T01:44:37.892Z,936.00
2017-12-13T01:45:37.902Z,935.97
2017-12-13T01:46:37.886Z,936.00
2017-12-13T01:47:37.883Z,935.97
2017-12-13T01:48:37.880Z,936.01
2017-12-13T01:49:37.869Z,936.02
2017-12-13T01:50:37.856Z,935.95
2017-12-13T01:51:37.859Z,936.00
2017-12-13T01:52:37.849Z,935.97
2017-12-13T01:53:37.838Z,935.98
2017-12-13T01:54:37.827Z,935.96
2017-12-13T01:55:37.826Z,935.89
2017-12-13T01:56:37.814Z,935.93
2017-12-13T01:57:37.811Z,935.87
2017-12-13T01:58:37.799Z,935.88
2017-12-13T01:59:37.796Z,935.94
2017-12-13T02:00:37.782Z,935.91
2017-12-13T02:01:37.784Z,935.91
2017-12-13T02:02:37.765Z,935.93
2017-12-13T02:03:37.791Z,935.90
2017-12-13T02:04:37.759Z,935.90
2017-12-13T02:05:37.750Z,935.94
2017-12-13T02:06:37.740Z,935.95
2017-12-13T02:07:37.728Z,935.91
2017-12-13T02:08:37.828Z,935.92
2017-12-13T02:09:37.720Z,935.91
2017-12-13T02:10:37.713Z,935.89
2017-12-13T02:11:37.703Z,935.92
2017-12-13T02:12:37.698Z,935.99
2017-12-13T02:13:37.686Z,935.91
2017-12-13T02:14:37.683Z,935.93
2017-12-13T02:15:37.670Z,935.90
2017-12-13T02:16:37.668Z,935.87
2017-12-13T02:17:37.657Z,935.88
2017-12-13T02:18:37.645Z,935.92
2017-12-13T02:19:37.628Z,935.92
2017-12-13T02:20:37.634Z,935.91
2017-12-13T02:21:37.611Z,935.91
2017-12-13T02:22:37.605Z,935.91
2017-12-13T02:23:37.614Z,935.91
2017-12-13T02:24:37.590Z,935.87
2017-12-13T02:25:37.599Z,935.84
2017-12-13T02:26:37.574Z,935.82
2017-12-13T02:27:37.584Z,935.79
2017-12-13T02:28:37.577Z,935.81
2017-12-13T02:29:37.565Z,935.77
2017-12-13T02:30:37.562Z,935.78
2017-12-13T02:31:37.544Z,935.72
2017-12-13T02:32:37.519Z,935.72
2017-12-13T02:33:37.530Z,935.70
2017-12-13T02:34:37.504Z,935.71
2017-12-13T02:35:37.525Z,935.72
2017-12-13T02:36:37.493Z,935.66
2017-12-13T02:37:37.508Z,935.66
2017-12-13T02:38:37.601Z,935.69
2017-12-13T02:39:37.471Z,935.66
2017-12-13T02:40:37.487Z,935.67
2017-12-13T02:41:37.451Z,935.68
2017-12-13T02:42:37.453Z,935.66
2017-12-13T02:43:37.461Z,935.61
2017-12-13T02:44:37.438Z,935.64
2017-12-13T02:45:37.448Z,935.62
2017-12-13T02:46:37.440Z,935.63
2017-12-13T02:47:37.405Z,935.59
2017-12-13T02:48:37.416Z,935.58
2017-12-13T02:49:37.400Z,935.62
2017-12-13T02:50:37.508Z,935.60
2017-12-13T02:51:37.380Z,935.59
2017-12-13T02:52:37.392Z,935.61
2017-12-13T02:53:37.370Z,935.58
2017-12-13T02:54:37.371Z,935.60
2017-12-13T02:55:37.368Z,935.57
2017-12-13T02:56:37.343Z,935.58
2017-12-13T02:57:37.335Z,935.56
2017-12-13T02:58:37.346Z,935.58
2017-12-13T02:59:37.342Z,935.58
2017-12-13T03:00:37.309Z,935.60
2017-12-13T03:01:37.305Z,935.56
2017-12-13T03:02:37.316Z,935.56
2017-12-13T03:03:37.303Z,935.49
2017-12-13T03:04:37.306Z,935.55
2017-12-13T03:05:37.293Z,935.48
2017-12-13T03:06:37.280Z,935.53
2017-12-13T03:07:37.257Z,935.49
2017-12-13T03:08:37.258Z,935.50
2017-12-13T03:09:37.245Z,935.49
2017-12-13T03:10:37.255Z,935.48
2017-12-13T03:11:37.231Z,935.46
2017-12-13T03:12:37.217Z,935.46
2017-12-13T03:13:37.237Z,935.47
2017-12-13T03:14:37.207Z,935.45
2017-12-13T03:15:37.223Z,935.41
2017-12-13T03:16:37.211Z,935.44
2017-12-13T03:17:37.207Z,935.46
2017-12-13T03:18:37.200Z,935.41
2017-12-13T03:19:37.192Z,935.43
2017-12-13T03:20:37.167Z,935.37
2017-12-13T03:21:37.150Z,935.39
2017-12-13T03:22:37.154Z,935.35
2017-12-13T03:23:37.163Z,935.36
2017-12-13T03:24:37.156Z,935.34
2017-12-13T03:25:37.129Z,935.35
2017-12-13T03:26:37.123Z,935.30
2017-12-13T03:27:37.133Z,935.29
2017-12-13T03:28:37.122Z,935.31
2017-12-13T03:29:37.114Z,935.23
2017-12-13T03:30:37.111Z,935.27
2017-12-13T03:31:37.081Z,935.24
2017-12-13T03:32:37.092Z,935.27
2017-12-13T03:33:37.069Z,935.25
2017-12-13T03:34:37.080Z,935.26
2017-12-13T03:35:37.061Z,935.27
2017-12-13T03:36:37.066Z,935.25
2017-12-13T03:37:37.030Z,935.25
2017-12-13T03:38:37.137Z,935.25
2017-12-13T03:39:37.039Z,935.26
2017-12-13T03:40:37.036Z,935.25
2017-12-13T03:41:37.023Z,935.24
2017-12-13T03:42:37.003Z,935.25
2017-12-13T03:43:37.004Z,935.21
2017-12-13T03:44:37.001Z,935.17
2017-12-13T03:45:36.976Z,935.22
2017-12-13T03:46:36.980Z,935.19
2017-12-13T03:47:36.960Z,935.20
2017-12-13T03:48:36.954Z,935.21
2017-12-13T03:49:36.957Z,935.18
2017-12-13T03:50:37.039Z,935.16
2017-12-13T03:51:36.929Z,935.15
2017-12-13T03:52:36.941Z,935.13
2017-12-13T03:53:36.928Z,935.14
2017-12-13T03:54:36.908Z,935.10
2017-12-13T03:55:36.913Z,935.07
2017-12-13T03:56:36.905Z,935.06
2017-12-13T03:57:36.897Z,935.07
2017-12-13T03:58:36.878Z,935.05
2017-12-13T03:59:36.888Z,935.08
2017-12-13T04:00:36.882Z,935.05
2017-12-13T04:01:36.868Z,935.03
2017-12-13T04:02:36.863Z,935.05
2017-12-13T04:03:36.851Z,935.02
2017-12-13T04:04:36.843Z,935.00
2017-12-13T04:05:36.820Z,934.97
2017-12-13T04:06:36.832Z,934.97
2017-12-13T04:07:36.826Z,934.94
2017-12-13T04:08:36.913Z,934.98
2017-12-13T04:09:36.805Z,934.94
2017-12-13T04:10:36.796Z,934.97
2017-12-13T04:11:36.779Z,934.97
2017-12-13T04:12:36.767Z,934.88
2017-12-13T04:13:36.759Z,934.89
2017-12-13T04:14:36.758Z,934.92
2017-12-13T04:15:36.760Z,934.92
2017-12-13T04:16:36.758Z,934.89
2017-12-13T04:17:36.735Z,934.92
2017-12-13T04:18:36.736Z,934.91
2017-12-13T04:19:36.721Z,934.91
2017-12-13T04:20:36.712Z,934.95
2017-12-13T04:21:36.714Z,934.90
2017-12-13T04:22:36.711Z,934.90
2017-12-13T04:23:36.683Z,934.90
2017-12-13T04:24:36.697Z,934.89
2017-12-13T04:25:36.674Z,934.84
2017-12-13T04:26:36.677Z,934.85
2017-12-13T04:27:36.654Z,934.86
2017-12-13T04:28:36.667Z,934.84
2017-12-13T04:29:36.654Z,934.88
2017-12-13T04:30:36.652Z,934.85
2017-12-13T04:31:36.624Z,934.87
2017-12-13T04:32:36.737Z,934.84
2017-12-13T04:33:36.627Z,934.83
2017-12-13T04:34:36.601Z,934.81
2017-12-13T04:35:36.592Z,934.82
2017-12-13T04:36:36.592Z,934.80
2017-12-13T04:37:36.578Z,934.81
2017-12-13T04:38:36.571Z,934.80
2017-12-13T04:39:36.593Z,934.78
2017-12-13T04:40:36.573Z,934.74
2017-12-13T04:41:36.559Z,934.75
2017-12-13T04:42:36.570Z,934.72
2017-12-13T04:43:36.556Z,934.71
2017-12-13T04:44:36.549Z,934.68
2017-12-13T04:45:36.526Z,934.69
2017-12-13T04:46:36.509Z,934.65
2017-12-13T04:47:36.520Z,934.65
2017-12-13T04:48:36.522Z,934.64
2017-12-13T04:49:36.505Z,934.61
2017-12-13T04:50:36.488Z,934.61
2017-12-13T04:51:36.478Z,934.64
2017-12-13T04:52:36.483Z,934.65
2017-12-13T04:53:36.481Z,934.62
2017-12-13T04:54:36.449Z,934.58
2017-12-13T04:55:36.447Z,934.54
2017-12-13T04:56:36.558Z,934.56
2017-12-13T04:57:36.424Z,934.56
2017-12-13T04:58:36.436Z,934.56
2017-12-13T04:59:36.420Z,934.62
2017-12-13T05:00:37.254Z,934.59
2017-12-13T05:01:36.418Z,934.58
2017-12-13T05:02:36.511Z,934.57
2017-12-13T05:03:36.404Z,934.57
2017-12-13T05:04:36.374Z,934.55
2017-12-13T05:05:36.366Z,934.56
2017-12-13T05:06:36.363Z,934.55
2017-12-13T05:07:36.357Z,934.55
2017-12-13T05:08:36.444Z,934.57
2017-12-13T05:09:36.339Z,934.58
2017-12-13T05:10:36.355Z,934.59
2017-12-13T05:11:36.338Z,934.56
2017-12-13T05:12:36.333Z,934.56
2017-12-13T05:13:36.323Z,934.55
2017-12-13T05:14:36.316Z,934.55
2017-12-13T05:15:36.305Z,934.51
2017-12-13T05:16:36.307Z,934.54
2017-12-13T05:17:36.290Z,934.53
2017-12-13T05:18:36.285Z,934.54
2017-12-13T05:19:36.283Z,934.50
2017-12-13T05:20:36.280Z,934.55
2017-12-13T05:21:36.263Z,934.54
2017-12-13T05:22:36.262Z,934.55
2017-12-13T05:23:36.255Z,934.55
2017-12-13T05:24:36.244Z,934.54
2017-12-13T05:25:36.238Z,934.57
2017-12-13T05:26:36.326Z,934.56
2017-12-13T05:27:36.228Z,934.57
2017-12-13T05:28:36.208Z,934.57
2017-12-13T05:29:36.203Z,934.62
2017-12-13T05:30:36.196Z,934.57
2017-12-13T05:31:36.199Z,934.56
2017-12-13T05:32:36.182Z,934.55
2017-12-13T05:33:36.179Z,934.52
2017-12-13T05:34:36.172Z,934.54
2017-12-13T05:35:36.169Z,934.51
2017-12-13T05:36:36.149Z,934.49
2017-12-13T05:37:36.151Z,934.44
2017-12-13T05:38:36.139Z,934.49
2017-12-13T05:39:36.130Z,934.46
2017-12-13T05:40:36.124Z,934.43
2017-12-13T05:41:36.120Z,934.47
2017-12-13T05:42:36.109Z,934.47
2017-12-13T05:43:36.097Z,934.47
2017-12-13T05:44:36.089Z,934.46
2017-12-13T05:45:36.087Z,934.47
2017-12-13T05:46:36.078Z,934.47
2017-12-13T05:47:36.072Z,934.50
2017-12-13T05:48:36.062Z,934.44
2017-12-13T05:49:36.055Z,934.46
2017-12-13T05:50:36.047Z,934.49
2017-12-13T05:51:36.044Z,934.47
2017-12-13T05:52:36.039Z,934.47
2017-12-13T05:53:36.025Z,934.48
2017-12-13T05:54:36.023Z,934.46
2017-12-13T05:55:36.011Z,934.51
2017-12-13T05:56:36.009Z,934.51
2017-12-13T05:57:35.996Z,934.51
2017-12-13T05:58:35.994Z,934.48
2017-12-13T05:59:35.987Z,934.47
2017-12-13T06:00:35.975Z,934.49
2017-12-13T06:01:35.966Z,934.49
2017-12-13T06:02:35.959Z,934.51
2017-12-13T06:03:35.952Z,934.47
2017-12-13T06:04:35.944Z,934.47
2017-12-13T06:05:35.936Z,934.52
2017-12-13T06:06:35.928Z,934.50
2017-12-13T06:07:35.922Z,934.51
2017-12-13T06:08:36.015Z,934.50
2017-12-13T06:09:35.905Z,934.51
2017-12-13T06:10:35.898Z,934.52
2017-12-13T06:11:35.896Z,934.53
2017-12-13T06:12:35.889Z,934.57
2017-12-13T06:13:35.875Z,934.55
2017-12-13T06:14:35.873Z,934.57
2017-12-13T06:15:35.861Z,934.57
2017-12-13T06:16:35.854Z,934.61
2017-12-13T06:17:35.845Z,934.56
2017-12-13T06:18:35.843Z,934.59
2017-12-13T06:19:35.830Z,934.57
2017-12-13T06:20:35.923Z,934.56
2017-12-13T06:21:35.806Z,934.58
2017-12-13T06:22:35.790Z,934.60
2017-12-13T06:23:35.782Z,934.57
2017-12-13T06:24:35.798Z,934.59
2017-12-13T06:25:35.777Z,934.61
2017-12-13T06:26:35.758Z,934.55
2017-12-13T06:27:35.753Z,934.56
2017-12-13T06:28:35.772Z,934.58
2017-12-13T06:29:35.736Z,934.57
2017-12-13T06:30:35.740Z,934.58
2017-12-13T06:31:35.726Z,934.55
2017-12-13T06:32:35.744Z,934.55
2017-12-13T06:33:35.716Z,934.55
2017-12-13T06:34:35.726Z,934.53
2017-12-13T06:35:35.719Z,934.50
2017-12-13T06:36:35.689Z,934.52
2017-12-13T06:37:35.693Z,934.53
2017-12-13T06:38:35.695Z,934.56
2017-12-13T06:39:35.678Z,934.50
2017-12-13T06:40:35.673Z,934.61
2017-12-13T06:41:35.651Z,934.56
2017-12-13T06:42:35.638Z,934.56
2017-12-13T06:43:35.639Z,934.55
2017-12-13T06:44:35.629Z,934.59
2017-12-13T06:45:35.632Z,934.58
2017-12-13T06:46:35.616Z,934.58
2017-12-13T06:47:35.610Z,934.63
2017-12-13T06:48:35.610Z,934.64
2017-12-13T06:49:35.602Z,934.66
2017-12-13T06:50:35.597Z,934.67
2017-12-13T06:51:35.577Z,934.66
2017-12-13T06:52:35.568Z,934.65
2017-12-13T06:53:35.568Z,934.67
2017-12-13T06:54:35.570Z,934.68
2017-12-13T06:55:35.553Z,934.65
2017-12-13T06:56:35.550Z,934.69
2017-12-13T06:57:35.547Z,934.68
2017-12-13T06:58:35.530Z,934.70
2017-12-13T06:59:35.539Z,934.71
2017-12-13T07:00:35.515Z,934.70
2017-12-13T07:01:35.516Z,934.66
2017-12-13T07:02:35.503Z,934.65
2017-12-13T07:03:35.501Z,934.68
2017-12-13T07:04:35.494Z,934.71
2017-12-13T07:05:35.485Z,934.68
2017-12-13T07:06:35.479Z,934.67
2017-12-13T07:07:35.465Z,934.70
2017-12-13T07:08:35.458Z,934.65
2017-12-13T07:09:35.449Z,934.70
2017-12-13T07:10:35.437Z,934.70
2017-12-13T07:11:35.434Z,934.70
2017-12-13T07:12:35.423Z,934.68
2017-12-13T07:13:35.414Z,934.69
2017-12-13T07:14:35.416Z,934.69
2017-12-13T07:15:35.409Z,934.68
2017-12-13T07:16:35.395Z,934.69
2017-12-13T07:17:35.387Z,934.67
2017-12-13T07:18:35.375Z,934.65
2017-12-13T07:19:35.368Z,934.69
2017-12-13T07:20:35.461Z,934.71
2017-12-13T07:21:35.352Z,934.69
2017-12-13T07:22:35.354Z,934.76
2017-12-13T07:23:35.338Z,934.77
2017-12-13T07:24:35.336Z,934.78
2017-12-13T07:25:35.331Z,934.74
2017-12-13T07:26:35.322Z,934.76
2017-12-13T07:27:35.317Z,934.79
2017-12-13T07:28:35.304Z,934.78
2017-12-13T07:29:35.295Z,934.80
2017-12-13T07:30:35.287Z,934.73
2017-12-13T07:31:35.279Z,934.74
2017-12-13T07:32:35.369Z,934.73
2017-12-13T07:33:35.265Z,934.74
2017-12-13T07:34:35.263Z,934.75
2017-12-13T07:35:35.247Z,934.76
2017-12-13T07:36:35.240Z,934.80
2017-12-13T07:37:35.234Z,934.80
2017-12-13T07:38:35.327Z,934.79
2017-12-13T07:39:35.224Z,934.82
2017-12-13T07:40:35.209Z,934.86
2017-12-13T07:41:35.214Z,934.88
2017-12-13T07:42:35.197Z,934.89
2017-12-13T07:43:35.190Z,934.89
2017-12-13T07:44:35.187Z,934.86
2017-12-13T07:45:35.171Z,934.88
2017-12-13T07:46:35.176Z,934.91
2017-12-13T07:47:35.160Z,934.93
2017-12-13T07:48:35.160Z,934.90
2017-12-13T07:49:35.142Z,934.90
2017-12-13T07:50:35.144Z,935.00
2017-12-13T07:51:35.137Z,934.97
2017-12-13T07:52:35.122Z,934.98
2017-12-13T07:53:35.112Z,934.97
2017-12-13T07:54:35.118Z,934.96
2017-12-13T07:55:35.110Z,934.98
2017-12-13T07:56:35.091Z,934.97
2017-12-13T07:57:35.088Z,935.01
2017-12-13T07:58:35.078Z,935.04
2017-12-13T07:59:35.081Z,934.99
2017-12-13T08:00:35.061Z,935.02
2017-12-13T08:01:35.053Z,935.02
2017-12-13T08:02:35.155Z,935.03
2017-12-13T08:03:35.039Z,935.07
2017-12-13T08:04:35.044Z,935.06
2017-12-13T08:05:35.023Z,935.09
2017-12-13T08:06:35.026Z,935.12
2017-12-13T08:07:34.995Z,935.15
2017-12-13T08:08:35.002Z,935.15
2017-12-13T08:09:34.989Z,935.18
2017-12-13T08:10:34.970Z,935.18
2017-12-13T08:11:34.966Z,935.20
2017-12-13T08:12:34.962Z,935.23
2017-12-13T08:13:34.948Z,935.22
2017-12-13T08:14:34.942Z,935.22
2017-12-13T08:15:34.959Z,935.22
2017-12-13T08:16:34.927Z,935.22
2017-12-13T08:17:34.928Z,935.19
2017-12-13T08:18:34.913Z,935.25
2017-12-13T08:19:34.905Z,935.23
2017-12-13T08:20:34.922Z,935.27
2017-12-13T08:21:34.890Z,935.26
2017-12-13T08:22:34.904Z,935.28
2017-12-13T08:23:34.926Z,935.28
2017-12-13T08:24:34.875Z,935.28
2017-12-13T08:25:34.876Z,935.29
2017-12-13T08:26:34.868Z,935.27
2017-12-13T08:27:34.852Z,935.30
2017-12-13T08:28:34.855Z,935.29
2017-12-13T08:29:34.832Z,935.32
2017-12-13T08:30:34.840Z,935.29
2017-12-13T08:31:34.828Z,935.27
2017-12-13T08:32:34.816Z,935.32
2017-12-13T08:33:34.830Z,935.34
2017-12-13T08:34:34.799Z,935.34
2017-12-13T08:35:34.812Z,935.39
2017-12-13T08:36:34.808Z,935.34
2017-12-13T08:37:34.790Z,935.39
2017-12-13T08:38:34.876Z,935.41
2017-12-13T08:39:34.783Z,935.41
2017-12-13T08:40:34.776Z,935.40
2017-12-13T08:41:34.744Z,935.42
2017-12-13T08:42:34.746Z,935.44
2017-12-13T08:43:34.753Z,935.42
2017-12-13T08:44:34.746Z,935.43
2017-12-13T08:45:34.738Z,935.45
2017-12-13T08:46:34.718Z,935.45
2017-12-13T08:47:34.718Z,935.45
2017-12-13T08:48:34.717Z,935.49
2017-12-13T08:49:34.712Z,935.48
2017-12-13T08:50:34.802Z,935.50
2017-12-13T08:51:34.699Z,935.47
2017-12-13T08:52:34.688Z,935.48
2017-12-13T08:53:34.656Z,935.47
2017-12-13T08:54:34.677Z,935.51
2017-12-13T08:55:34.653Z,935.53
2017-12-13T08:56:34.641Z,935.52
2017-12-13T08:57:34.639Z,935.50
2017-12-13T08:58:34.620Z,935.53
2017-12-13T08:59:34.619Z,935.53
2017-12-13T09:00:34.612Z,935.54
2017-12-13T09:01:34.616Z,935.56
2017-12-13T09:02:34.591Z,935.59
2017-12-13T09:03:34.594Z,935.60
2017-12-13T09:04:34.595Z,935.61
2017-12-13T09:05:34.587Z,935.57
2017-12-13T09:06:34.563Z,935.63
2017-12-13T09:07:34.564Z,935.62
2017-12-13T09:08:34.567Z,935.62
2017-12-13T09:09:34.558Z,935.61
2017-12-13T09:10:34.551Z,935.62
2017-12-13T09:11:34.527Z,935.62
2017-12-13T09:12:34.520Z,935.62
2017-12-13T09:13:34.511Z,935.62
2017-12-13T09:14:34.522Z,935.65
2017-12-13T09:15:34.498Z,935.68
2017-12-13T09:16:34.508Z,935.71
2017-12-13T09:17:34.500Z,935.68
2017-12-13T09:18:34.493Z,935.71
2017-12-13T09:19:34.483Z,935.72
2017-12-13T09:20:34.479Z,935.74
2017-12-13T09:21:34.469Z,935.79
2017-12-13T09:22:34.462Z,935.80
2017-12-13T09:23:34.455Z,935.84
2017-12-13T09:24:34.457Z,935.81
2017-12-13T09:25:34.453Z,935.82
2017-12-13T09:26:34.433Z,935.81
2017-12-13T09:27:34.426Z,935.83
2017-12-13T09:28:34.419Z,935.84
2017-12-13T09:29:34.411Z,935.86
2017-12-13T09:30:34.416Z,935.84
2017-12-13T09:31:34.408Z,935.87
2017-12-13T09:32:34.393Z,935.88
2017-12-13T09:33:34.383Z,935.88
2017-12-13T09:34:34.385Z,935.89
2017-12-13T09:35:34.372Z,935.93
2017-12-13T09:36:34.361Z,935.89
2017-12-13T09:37:34.355Z,935.89
2017-12-13T09:38:34.447Z,935.91
2017-12-13T09:39:34.340Z,935.96
2017-12-13T09:40:34.333Z,935.90
2017-12-13T09:41:34.311Z,935.94
2017-12-13T09:42:34.304Z,935.94
2017-12-13T09:43:34.313Z,936.00
2017-12-13T09:44:34.306Z,936.00
2017-12-13T09:45:34.297Z,936.03
2017-12-13T09:46:34.291Z,936.05
2017-12-13T09:47:34.269Z,936.07
2017-12-13T09:48:34.262Z,936.05
2017-12-13T09:49:34.269Z,936.05
2017-12-13T09:50:34.309Z,936.04
2017-12-13T09:51:34.261Z,936.06
2017-12-13T09:52:34.236Z,936.10
2017-12-13T09:53:34.231Z,936.14
2017-12-13T09:54:34.219Z,936.17
2017-12-13T09:55:34.213Z,936.18
2017-12-13T09:56:34.204Z,936.17
2017-12-13T09:57:34.199Z,936.19
2017-12-13T09:58:34.196Z,936.16
2017-12-13T09:59:34.185Z,936.18
2017-12-13T10:00:34.179Z,936.22
2017-12-13T10:01:34.176Z,936.23
2017-12-13T10:02:34.167Z,936.25
2017-12-13T10:03:34.161Z,936.22
2017-12-13T10:04:34.156Z,936.20
2017-12-13T10:05:34.148Z,936.27
2017-12-13T10:06:34.142Z,936.21
2017-12-13T10:07:34.128Z,936.27
2017-12-13T10:08:34.228Z,936.32
2017-12-13T10:09:34.119Z,936.33
2017-12-13T10:10:34.108Z,936.30
2017-12-13T10:11:34.102Z,936.10
2017-12-13T10:12:34.103Z,936.35
2017-12-13T10:13:34.093Z,936.27
2017-12-13T10:14:34.081Z,936.28
2017-12-13T10:15:34.074Z,936.32
2017-12-13T10:16:34.076Z,936.32
2017-12-13T10:17:34.059Z,936.35
2017-12-13T10:18:34.056Z,936.34
2017-12-13T10:19:34.050Z,936.33
2017-12-13T10:20:34.290Z,936.34
2017-12-13T10:21:34.038Z,936.48
2017-12-13T10:22:34.030Z,936.36
2017-12-13T10:23:34.023Z,936.42
2017-12-13T10:24:34.020Z,936.38
2017-12-13T10:25:34.006Z,936.44
2017-12-13T10:26:33.995Z,936.46
2017-12-13T10:27:33.997Z,936.43
2017-12-13T10:28:33.981Z,936.51
2017-12-13T10:29:33.976Z,936.51
2017-12-13T10:30:33.974Z,936.50
2017-12-13T10:31:33.967Z,936.47
2017-12-13T10:32:33.963Z,936.48
2017-12-13T10:33:33.956Z,936.50
2017-12-13T10:34:33.946Z,936.55
2017-12-13T10:35:33.933Z,936.55
2017-12-13T10:36:33.933Z,936.56
2017-12-13T10:37:33.930Z,936.53
2017-12-13T10:38:33.921Z,936.59
2017-12-13T10:39:33.912Z,936.56
2017-12-13T10:40:33.900Z,936.58
2017-12-13T10:41:33.895Z,936.61
2017-12-13T10:42:33.891Z,936.64
2017-12-13T10:43:33.886Z,936.66
2017-12-13T10:44:33.879Z,936.68
2017-12-13T10:45:33.876Z,936.65
2017-12-13T10:46:33.869Z,936.66
2017-12-13T10:47:33.859Z,936.66
2017-12-13T10:48:33.855Z,936.69
2017-12-13T10:49:33.848Z,936.70
2017-12-13T10:50:33.942Z,936.70
2017-12-13T10:51:33.831Z,936.73
2017-12-13T10:52:33.826Z,936.67
2017-12-13T10:53:33.817Z,936.68
2017-12-13T10:54:33.816Z,936.71
2017-12-13T10:55:33.810Z,936.71
2017-12-13T10:56:33.799Z,936.69
2017-12-13T10:58:33.789Z,936.72
2017-12-13T10:59:33.783Z,936.74
2017-12-13T11:00:33.777Z,936.72
2017-12-13T11:01:33.766Z,936.75
2017-12-13T11:02:33.758Z,936.79
2017-12-13T11:03:33.752Z,936.78
2017-12-13T11:04:33.747Z,936.76
2017-12-13T11:05:33.747Z,936.76
2017-12-13T11:06:33.738Z,936.73
2017-12-13T11:07:33.729Z,936.75
2017-12-13T11:08:33.724Z,936.76
2017-12-13T11:09:33.712Z,936.83
2017-12-13T11:10:33.710Z,936.78
2017-12-13T11:11:33.702Z,936.82
2017-12-13T11:12:33.695Z,936.82
2017-12-13T11:13:33.696Z,936.83
2017-12-13T11:14:33.692Z,936.81
2017-12-13T11:15:33.676Z,936.82
2017-12-13T11:16:33.672Z,936.85
2017-12-13T11:17:33.667Z,936.85
2017-12-13T11:18:33.661Z,936.86
2017-12-13T11:19:33.755Z,936.87
2017-12-13T11:20:33.651Z,936.85
2017-12-13T11:21:33.645Z,936.86
2017-12-13T11:22:33.635Z,936.86
2017-12-13T11:23:33.628Z,936.89
2017-12-13T11:24:33.623Z,936.88
2017-12-13T11:25:33.615Z,936.93
2017-12-13T11:26:33.608Z,936.90
2017-12-13T11:27:33.601Z,936.88
2017-12-13T11:28:33.599Z,936.89
2017-12-13T11:30:33.684Z,936.87
2017-12-13T11:31:33.580Z,936.88
2017-12-13T11:32:33.574Z,936.88
2017-12-13T11:33:33.569Z,936.92
2017-12-13T11:34:33.559Z,936.92
2017-12-13T11:35:33.553Z,936.95
2017-12-13T11:36:33.550Z,936.94
2017-12-13T11:37:33.542Z,936.97
2017-12-13T11:38:33.534Z,936.97
2017-12-13T11:39:33.530Z,937.00
2017-12-13T11:40:33.518Z,936.96
2017-12-13T11:41:33.517Z,937.00
2017-12-13T11:42:33.505Z,936.93
2017-12-13T11:43:33.505Z,936.96
2017-12-13T11:44:33.494Z,937.01
2017-12-13T11:45:33.482Z,936.99
2017-12-13T11:46:33.481Z,937.06
2017-12-13T11:48:33.466Z,937.03
2017-12-13T11:49:33.463Z,937.02
2017-12-13T11:50:33.458Z,937.02
2017-12-13T11:51:33.453Z,937.05
2017-12-13T11:52:33.445Z,937.05
2017-12-13T11:53:33.440Z,937.03
2017-12-13T11:54:33.429Z,937.08
2017-12-13T11:55:33.423Z,937.03
2017-12-13T11:56:33.417Z,937.06
2017-12-13T11:57:33.415Z,937.09
2017-12-13T11:58:33.414Z,937.05
2017-12-13T11:59:33.399Z,937.03
2017-12-13T12:00:33.398Z,937.02
2017-12-13T12:01:33.392Z,937.07
2017-12-13T12:02:33.375Z,937.06
2017-12-13T12:03:33.385Z,937.08
2017-12-13T12:04:33.376Z,937.06
2017-12-13T12:05:33.364Z,937.11
2017-12-13T12:07:33.357Z,937.09
2017-12-13T12:08:33.347Z,937.07
2017-12-13T12:09:33.341Z,937.06
2017-12-13T12:10:33.336Z,937.06
2017-12-13T12:11:33.330Z,937.06
2017-12-13T12:12:33.325Z,937.06
2017-12-13T12:13:33.318Z,937.00
2017-12-13T12:14:33.318Z,937.06
2017-12-13T12:15:33.313Z,937.02
2017-12-13T12:16:33.330Z,937.00
2017-12-13T12:17:33.296Z,936.98
2017-12-13T12:18:33.303Z,937.00
2017-12-13T12:19:33.287Z,937.01
2017-12-13T12:20:33.280Z,937.05
2017-12-13T12:21:33.280Z,937.03
2017-12-13T12:22:33.276Z,937.07
2017-12-13T12:23:33.277Z,937.03
2017-12-13T12:24:33.268Z,937.04
2017-12-13T12:25:33.260Z,937.01
2017-12-13T12:26:33.255Z,937.00
2017-12-13T12:27:33.248Z,937.05
2017-12-13T12:28:33.242Z,937.00
2017-12-13T12:29:33.240Z,937.06
2017-12-13T12:30:33.235Z,937.01
2017-12-13T12:31:33.227Z,936.97
2017-12-13T12:32:33.228Z,936.92